Time;durP1;ratioP1;P1;durP2;ratioP2;P2;SDS_P1;SDS_P2;PMS_P1;PMS_P2;Temp;Humidity;BMP_temperature;BMP_pressure;BME280_temperature;BME280_humidity;BME280_pressure;Samples;Min_cycle;Max_cycle;Signal;HPM_P1;HPM_P2
2023/11/29 00:00:41;;;;;;;19.38;6.90;;;;;;;-2.96;100.00;99494.81;7393489;19;20166;-47
2023/11/29 00:03:14;;;;;;;15.07;6.97;;;;;;;-2.93;100.00;99489.13;7370579;19;20202;-45
2023/11/29 00:05:43;;;;;;;34.20;12.52;;;;;;;-2.95;100.00;99483.06;7394325;19;20150;-47
2023/11/29 00:08:14;;;;;;;15.27;6.43;;;;;;;-2.97;100.00;99490.53;7370808;19;20217;-44
2023/11/29 00:10:44;;;;;;;29.60;10.18;;;;;;;-2.82;100.00;99474.78;7393338;19;20178;-45
2023/11/29 00:13:14;;;;;;;18.60;7.22;;;;;;;-2.78;100.00;99481.81;7367634;19;20196;-45
2023/11/29 00:15:44;;;;;;;22.50;8.15;;;;;;;-2.76;100.00;99472.69;7393950;19;20143;-46
2023/11/29 00:18:16;;;;;;;17.10;7.88;;;;;;;-2.70;100.00;99475.69;7370622;19;20198;-47
2023/11/29 00:20:46;;;;;;;18.85;8.02;;;;;;;-2.71;100.00;99468.88;7392714;19;20178;-44
2023/11/29 00:23:16;;;;;;;18.13;7.55;;;;;;;-2.74;100.00;99464.47;7370163;19;20213;-44
2023/11/29 00:25:45;;;;;;;19.80;8.60;;;;;;;-2.66;100.00;99462.53;7393702;19;20139;-46
2023/11/29 00:28:15;;;;;;;18.15;7.53;;;;;;;-2.58;100.00;99465.59;7369861;19;20205;-49
2023/11/29 00:30:45;;;;;;;19.73;7.75;;;;;;;-2.61;100.00;99510.84;7393861;19;20174;-49
2023/11/29 00:33:17;;;;;;;20.25;8.57;;;;;;;-2.58;100.00;99565.00;7370975;19;20587;-48
2023/11/29 00:35:47;;;;;;;21.20;7.65;;;;;;;-2.56;100.00;99587.84;7393282;19;20139;-48
2023/11/29 00:38:16;;;;;;;25.25;9.70;;;;;;;-2.42;100.00;99598.97;7369393;19;20186;-47
2023/11/29 00:40:46;;;;;;;22.60;7.70;;;;;;;-2.48;100.00;99606.09;7392528;19;20677;-50
2023/11/29 00:43:15;;;;;;;30.10;12.38;;;;;;;-2.37;100.00;99617.03;7369538;19;20694;-44
2023/11/29 00:45:45;;;;;;;26.95;10.57;;;;;;;-2.37;100.00;99612.84;7393053;19;20139;-49
2023/11/29 00:48:18;;;;;;;23.70;9.05;;;;;;;-2.27;100.00;99623.66;7367796;19;20196;-48
2023/11/29 00:50:47;;;;;;;21.02;7.78;;;;;;;-2.27;100.00;99621.13;7391914;19;20802;-48
2023/11/29 00:53:17;;;;;;;24.88;8.90;;;;;;;-2.28;100.00;99620.22;7369879;19;20190;-51
2023/11/29 00:55:46;;;;;;;17.25;7.93;;;;;;;-2.34;100.00;99618.13;7394350;19;20519;-49
2023/11/29 00:58:17;;;;;;;22.70;9.00;;;;;;;-2.33;100.00;99616.47;7369416;19;20190;-47
2023/11/29 01:00:46;;;;;;;18.95;8.07;;;;;;;-2.35;100.00;99615.47;7399814;19;20699;-49
2023/11/29 01:03:18;;;;;;;17.60;8.85;;;;;;;-2.23;100.00;99624.00;7375891;19;20198;-48
2023/11/29 01:05:48;;;;;;;23.42;9.27;;;;;;;-2.28;100.00;99626.91;7399304;19;20143;-49
2023/11/29 01:08:24;;;;;;;18.40;8.50;;;;;;;-2.25;100.00;99629.69;7374913;19;20205;-48
2023/11/29 01:10:55;;;;;;;20.13;8.35;;;;;;;-2.24;100.00;99631.44;7398252;19;20537;-49
2023/11/29 01:13:24;;;;;;;19.60;8.70;;;;;;;-2.21;100.00;99645.19;7375934;19;20186;-49
2023/11/29 01:15:54;;;;;;;20.17;8.50;;;;;;;-2.09;100.00;99650.31;7398685;19;20143;-48
2023/11/29 01:18:27;;;;;;;24.08;9.10;;;;;;;-2.00;100.00;99659.31;7376308;19;20194;-49
2023/11/29 01:20:57;;;;;;;36.70;12.57;;;;;;;-1.96;100.00;99662.19;7399534;19;20166;-49
2023/11/29 01:23:27;;;;;;;19.70;6.85;;;;;;;-1.95;100.00;99666.47;7376196;19;20254;-48
2023/11/29 01:25:57;;;;;;;17.48;7.70;;;;;;;-1.91;100.00;99676.06;7399253;19;20146;-49
2023/11/29 01:28:27;;;;;;;19.45;8.93;;;;;;;-1.87;100.00;99687.28;7373338;19;20190;-51
2023/11/29 01:30:56;;;;;;;32.85;12.63;;;;;;;-1.77;100.00;99702.38;7397317;19;20707;-49
2023/11/29 01:33:28;;;;;;;24.55;8.95;;;;;;;-1.70;100.00;99720.53;7376315;19;20269;-49
2023/11/29 01:35:58;;;;;;;16.45;7.43;;;;;;;-1.75;100.00;99726.91;7398859;19;20146;-49
2023/11/29 01:38:27;;;;;;;22.45;10.10;;;;;;;-1.69;100.00;99727.34;7375242;19;20190;-47
2023/11/29 01:40:57;;;;;;;18.95;8.90;;;;;;;-1.64;100.00;99731.13;7398105;19;20188;-48
2023/11/29 01:43:27;;;;;;;26.60;10.38;;;;;;;-1.58;100.00;99736.63;7375971;19;20198;-46
2023/11/29 01:45:56;;;;;;;17.48;7.93;;;;;;;-1.59;100.00;99744.09;7398379;19;20155;-47
2023/11/29 01:48:30;;;;;;;17.80;8.27;;;;;;;-1.58;100.00;99749.28;7371743;19;20655;-46
2023/11/29 01:50:59;;;;;;;27.63;11.75;;;;;;;-1.53;100.00;99758.06;7397983;19;20179;-44
2023/11/29 01:53:31;;;;;;;15.23;7.18;;;;;;;-1.55;100.00;99777.31;7375642;19;20200;-47
2023/11/29 01:56:01;;;;;;;21.70;9.18;;;;;;;-1.46;100.00;99779.66;7400870;19;20170;-46
2023/11/29 01:58:31;;;;;;;21.20;9.75;;;;;;;-1.44;100.00;99782.31;7375041;19;20265;-49
2023/11/29 02:01:01;;;;;;;22.55;10.50;;;;;;;-1.40;100.00;99786.81;7396967;19;20182;-47
2023/11/29 02:03:33;;;;;;;14.02;6.75;;;;;;;-1.38;100.00;99788.69;7375508;19;20261;-47
2023/11/29 02:06:03;;;;;;;15.02;7.28;;;;;;;-1.37;100.00;99787.06;7400550;19;20142;-46
2023/11/29 02:08:33;;;;;;;23.05;12.07;;;;;;;-1.28;100.00;99792.78;7373059;19;20274;-46
2023/11/29 02:11:03;;;;;;;15.38;7.65;;;;;;;-1.31;100.00;99787.50;7396148;19;20185;-45
2023/11/29 02:13:33;;;;;;;28.90;11.57;;;;;;;-1.30;100.00;99793.44;7374937;19;20200;-46
2023/11/29 02:16:03;;;;;;;11.32;5.25;;;;;;;-1.31;100.00;99791.69;7397816;19;20142;-47
2023/11/29 02:18:35;;;;;;;27.73;12.48;;;;;;;-1.25;100.00;99794.66;7374901;19;20205;-47
2023/11/29 02:21:05;;;;;;;28.23;12.95;;;;;;;-1.24;100.00;99799.84;7397077;19;20191;-45
2023/11/29 02:23:42;;;;;;;15.77;8.43;;;;;;;-1.26;100.00;99801.38;7374481;19;20202;-45
2023/11/29 02:26:14;;;;;;;20.75;9.93;;;;;;;-1.24;100.00;99794.78;7397717;19;20146;-45
2023/11/29 02:28:44;;;;;;;18.58;8.00;;;;;;;-1.25;100.00;99795.56;7374011;19;20658;-44
2023/11/29 02:31:13;;;;;;;27.38;12.52;;;;;;;-1.20;100.00;99797.53;7393857;19;20178;-45
2023/11/29 02:33:43;;;;;;;13.57;6.03;;;;;;;-1.18;100.00;99803.59;7395413;19;20186;-44
2023/11/29 02:36:12;;;;;;;24.70;12.80;;;;;;;-1.17;100.00;99805.34;7395785;19;20149;-44
2023/11/29 02:38:42;;;;;;;29.10;13.48;;;;;;;-1.13;100.00;99804.81;7374936;19;20198;-45
2023/11/29 02:41:14;;;;;;;19.70;11.18;;;;;;;-1.12;100.00;99798.97;7390341;19;20174;-44
2023/11/29 02:43:44;;;;;;;32.13;12.93;;;;;;;-1.11;100.00;99798.22;7375480;19;20198;-44
2023/11/29 02:46:14;;;;;;;18.20;7.55;;;;;;;-1.16;100.00;99797.00;7380202;19;20142;-45
2023/11/29 02:48:44;;;;;;;37.67;15.45;;;;;;;-1.09;100.00;99784.00;7397111;19;20150;-44
2023/11/29 02:51:15;;;;;;;23.33;10.73;;;;;;;-1.13;100.00;99787.97;7384664;19;20175;-43
2023/11/29 02:53:44;;;;;;;25.25;10.35;;;;;;;-1.10;100.00;99787.31;7395595;19;20656;-44
2023/11/29 02:56:17;;;;;;;34.90;16.08;;;;;;;-1.06;100.00;99779.19;7383634;19;20135;-43
2023/11/29 02:58:46;;;;;;;37.00;16.88;;;;;;;-1.09;100.00;99784.00;7396016;19;20147;-43
2023/11/29 03:01:16;;;;;;;13.70;6.03;;;;;;;-1.12;100.00;99789.72;7371572;19;20178;-44
2023/11/29 03:03:46;;;;;;;30.58;13.57;;;;;;;-1.10;100.00;99782.25;7394258;19;20809;-43
2023/11/29 03:06:15;;;;;;;32.45;13.05;;;;;;;-1.05;100.00;99786.00;7372225;19;20150;-43
2023/11/29 03:08:45;;;;;;;23.50;11.48;;;;;;;-1.09;100.00;99791.59;7394253;19;20166;-43
2023/11/29 03:11:17;;;;;;;18.88;8.93;;;;;;;-1.09;100.00;99800.09;7376484;19;20189;-45
2023/11/29 03:13:47;;;;;;;28.65;12.27;;;;;;;-1.05;100.00;99806.25;7396402;19;20151;-44
2023/11/29 03:16:16;;;;;;;24.95;10.65;;;;;;;-1.11;100.00;99804.16;7374151;19;20595;-44
2023/11/29 03:18:46;;;;;;;21.77;9.68;;;;;;;-1.15;100.00;99819.00;7394199;19;20182;-46
2023/11/29 03:21:16;;;;;;;23.20;11.90;;;;;;;-1.17;100.00;99820.53;7371093;19;20177;-43
2023/11/29 03:23:47;;;;;;;33.20;15.52;;;;;;;-1.19;100.00;99842.34;7396268;19;20146;-43
2023/11/29 03:26:19;;;;;;;32.08;13.23;;;;;;;-1.23;100.00;99852.22;7372217;19;20139;-43
2023/11/29 03:28:49;;;;;;;30.15;12.15;;;;;;;-1.23;100.00;99849.69;7393700;19;20195;-42
2023/11/29 03:31:19;;;;;;;26.75;13.48;;;;;;;-1.24;100.00;99841.97;7371633;19;20188;-43
2023/11/29 03:33:48;;;;;;;33.20;16.08;;;;;;;-1.19;100.00;99847.41;7393680;19;20146;-42
2023/11/29 03:36:18;;;;;;;23.98;10.55;;;;;;;-1.19;100.00;99857.53;7371582;19;20142;-44
2023/11/29 03:38:47;;;;;;;20.70;9.60;;;;;;;-1.19;100.00;99852.47;7395443;19;20150;-43
2023/11/29 03:41:20;;;;;;;18.85;10.07;;;;;;;-1.15;100.00;99854.44;7370439;19;20194;-42
2023/11/29 03:43:49;;;;;;;15.50;7.70;;;;;;;-1.12;100.00;99850.50;7392677;19;20159;-42
2023/11/29 03:46:19;;;;;;;38.22;16.50;;;;;;;-1.07;100.00;99855.03;7369579;19;20151;-43
2023/11/29 03:48:48;;;;;;;32.22;14.35;;;;;;;-1.08;100.00;99854.13;7393324;19;20214;-44
2023/11/29 03:51:18;;;;;;;43.22;19.92;;;;;;;-1.00;100.00;99855.59;7369944;19;20655;-43
2023/11/29 03:53:48;;;;;;;22.55;11.13;;;;;;;-1.01;100.00;99868.13;7395049;19;20157;-44
2023/11/29 03:56:20;;;;;;;30.35;13.45;;;;;;;-1.01;100.00;99863.97;7371057;19;20134;-44
2023/11/29 03:58:50;;;;;;;26.38;12.10;;;;;;;-0.98;100.00;99854.03;7392872;19;20135;-42
2023/11/29 04:01:19;;;;;;;38.90;19.02;;;;;;;-0.95;100.00;99848.31;7370803;19;20189;-43
2023/11/29 04:03:49;;;;;;;29.85;13.73;;;;;;;-0.97;100.00;99843.13;7394313;19;20146;-42
2023/11/29 04:06:26;;;;;;;33.30;15.68;;;;;;;-0.96;100.00;99832.22;7370584;19;20135;-45
2023/11/29 04:08:56;;;;;;;18.65;8.57;;;;;;;-0.99;100.00;99824.44;7392892;19;20217;-42
2023/11/29 04:11:28;;;;;;;35.33;14.52;;;;;;;-0.94;100.00;99819.69;7369409;19;20668;-44
2023/11/29 04:13:57;;;;;;;39.33;14.38;;;;;;;-0.95;100.00;99817.94;7393165;19;20604;-43
2023/11/29 04:16:28;;;;;;;34.40;15.10;;;;;;;-0.96;100.00;99804.38;7372150;19;20498;-44
2023/11/29 04:18:58;;;;;;;32.17;14.20;;;;;;;-0.90;100.00;99796.38;7394528;19;20149;-43
2023/11/29 04:21:29;;;;;;;40.83;18.95;;;;;;;-0.88;100.00;99786.34;7369697;19;20261;-43
2023/11/29 04:23:59;;;;;;;40.28;16.08;;;;;;;-0.85;100.00;99789.09;7392877;19;20153;-43
2023/11/29 04:26:32;;;;;;;33.50;14.82;;;;;;;-0.83;100.00;99778.28;7370138;19;20142;-43
2023/11/29 04:29:03;;;;;;;28.48;13.32;;;;;;;-0.88;100.00;99766.09;7392715;19;20138;-42
2023/11/29 04:31:35;;;;;;;22.10;8.68;;;;;;;-0.88;100.00;99761.88;7370939;19;20233;-42
2023/11/29 04:34:05;;;;;;;45.95;17.70;;;;;;;-0.84;100.00;99745.25;7390924;19;20147;-42
2023/11/29 04:36:46;;;;;;;15.55;8.35;;;;;;;-0.85;100.00;99744.38;7371624;19;20194;-43
2023/11/29 04:39:19;;;;;;;33.72;15.05;;;;;;;-0.81;100.00;99727.75;7390749;19;20134;-42
2023/11/29 04:41:52;;;;;;;40.80;17.88;;;;;;;-0.76;100.00;99723.00;7370045;19;20820;-43
2023/11/29 04:44:21;;;;;;;41.40;18.13;;;;;;;-0.72;100.00;99712.31;7391452;19;20147;-41
2023/11/29 04:46:51;;;;;;;33.08;15.68;;;;;;;-0.66;100.00;99704.25;7362600;19;20208;-41
2023/11/29 04:49:22;;;;;;;29.52;14.32;;;;;;;-0.71;100.00;99694.66;7390318;19;20142;-42
2023/11/29 04:51:51;;;;;;;28.83;11.02;;;;;;;-0.70;100.00;99693.03;7369560;19;20232;-43
2023/11/29 04:54:21;;;;;;;24.23;11.02;;;;;;;-0.77;100.00;99681.56;7390519;19;20151;-41
2023/11/29 04:56:53;;;;;;;31.45;14.05;;;;;;;-0.76;100.00;99658.03;7370391;19;20660;-42
2023/11/29 04:59:23;;;;;;;29.85;13.77;;;;;;;-0.76;100.00;99645.34;7390010;19;20667;-43
2023/11/29 05:01:52;;;;;;;18.40;9.73;;;;;;;-0.73;100.00;99622.75;7368710;19;20560;-41
2023/11/29 05:04:22;;;;;;;26.70;10.15;;;;;;;-0.73;100.00;99612.63;7390705;19;20523;-40
2023/11/29 05:06:54;;;;;;;26.20;13.10;;;;;;;-0.74;100.00;99608.34;7369453;19;20214;-41
2023/11/29 05:09:23;;;;;;;24.55;10.73;;;;;;;-0.75;100.00;99598.09;7389676;19;20425;-41
2023/11/29 05:11:56;;;;;;;28.65;13.02;;;;;;;-0.76;100.00;99579.50;7368279;19;20686;-42
2023/11/29 05:14:25;;;;;;;28.35;14.07;;;;;;;-0.74;100.00;99575.41;7390028;19;20139;-43
2023/11/29 05:16:55;;;;;;;20.67;8.60;;;;;;;-0.76;100.00;99571.00;7370415;19;20195;-41
2023/11/29 05:19:25;;;;;;;19.90;9.07;;;;;;;-0.71;100.00;99562.91;7389368;19;20219;-41
2023/11/29 05:21:54;;;;;;;28.63;12.25;;;;;;;-0.72;100.00;99548.50;7368632;19;20205;-41
2023/11/29 05:24:24;;;;;;;25.85;12.70;;;;;;;-0.71;100.00;99547.72;7392198;19;20146;-41
2023/11/29 05:26:54;;;;;;;18.05;8.65;;;;;;;-0.72;100.00;99540.91;7368695;19;20230;-42
2023/11/29 05:29:24;;;;;;;22.58;10.52;;;;;;;-0.74;100.00;99539.94;7389074;19;20162;-41
2023/11/29 05:31:53;;;;;;;18.15;10.05;;;;;;;-0.77;100.00;99521.97;7367952;19;20205;-42
2023/11/29 05:34:23;;;;;;;24.48;12.65;;;;;;;-0.75;100.00;99525.50;7389737;19;20206;-41
2023/11/29 05:36:54;;;;;;;24.05;10.70;;;;;;;-0.74;100.00;99524.72;7367790;19;20202;-40
2023/11/29 05:39:24;;;;;;;27.75;13.65;;;;;;;-0.71;100.00;99539.25;7391174;19;20150;-42
2023/11/29 05:41:56;;;;;;;24.60;11.77;;;;;;;-0.78;100.00;99545.56;7367764;19;20254;-40
2023/11/29 05:44:25;;;;;;;20.17;9.23;;;;;;;-0.81;100.00;99552.97;7391165;19;20626;-42
2023/11/29 05:46:55;;;;;;;20.08;10.10;;;;;;;-0.87;100.00;99571.13;7372816;19;20208;-41
2023/11/29 05:49:24;;;;;;;20.73;10.45;;;;;;;-0.84;100.00;99583.13;7394898;19;20607;-42
2023/11/29 05:51:54;;;;;;;30.77;11.25;;;;;;;-0.87;100.00;99604.06;7374708;19;20559;-42
2023/11/29 05:54:23;;;;;;;19.20;9.50;;;;;;;-0.84;100.00;99616.06;7395627;19;20206;-42
2023/11/29 05:56:57;;;;;;;22.23;11.25;;;;;;;-0.77;100.00;99635.97;7374899;19;20194;-42
2023/11/29 05:59:27;;;;;;;12.93;7.32;;;;;;;-0.81;100.00;99641.63;7395315;19;20143;-41
2023/11/29 06:01:58;;;;;;;26.05;11.25;;;;;;;-0.80;100.00;99645.91;7374190;19;20210;-41
2023/11/29 06:04:28;;;;;;;22.73;9.00;;;;;;;-0.80;100.00;99645.91;7395683;19;20139;-40
2023/11/29 06:06:58;;;;;;;24.23;11.30;;;;;;;-0.80;100.00;99656.03;7373908;19;20201;-41
2023/11/29 06:09:28;;;;;;;27.67;11.57;;;;;;;-0.77;100.00;99661.31;7394718;19;20218;-41
2023/11/29 06:12:00;;;;;;;21.20;11.18;;;;;;;-0.75;100.00;99669.03;7373909;19;20209;-40
2023/11/29 06:14:30;;;;;;;28.88;12.60;;;;;;;-0.75;100.00;99674.09;7396100;19;20524;-41
2023/11/29 06:17:00;;;;;;;22.60;9.85;;;;;;;-0.72;100.00;99672.66;7375870;19;20210;-40
2023/11/29 06:19:29;;;;;;;20.85;10.50;;;;;;;-0.73;100.00;99675.94;7395491;19;20151;-41
2023/11/29 06:21:59;;;;;;;13.20;6.72;;;;;;;-0.74;100.00;99670.78;7373802;19;20217;-40
2023/11/29 06:24:31;;;;;;;28.58;11.32;;;;;;;-0.72;100.00;99662.50;7395445;19;20563;-41
2023/11/29 06:27:03;;;;;;;18.15;9.35;;;;;;;-0.72;100.00;99654.91;7373992;19;20224;-42
2023/11/29 06:29:33;;;;;;;10.95;5.47;;;;;;;-0.78;100.00;99654.47;7394952;19;20139;-40
2023/11/29 06:32:04;;;;;;;22.48;11.40;;;;;;;-0.76;100.00;99658.03;7373600;19;20209;-43
2023/11/29 06:34:33;;;;;;;25.20;11.40;;;;;;;-0.78;100.00;99654.47;7395448;19;20612;-41
2023/11/29 06:37:03;;;;;;;26.08;11.07;;;;;;;-0.79;100.00;99665.41;7374795;19;20216;-40
2023/11/29 06:39:32;;;;;;;25.38;11.98;;;;;;;-0.78;100.00;99663.75;7394443;19;20451;-42
2023/11/29 06:42:05;;;;;;;25.60;12.32;;;;;;;-0.77;100.00;99665.50;7372880;19;20215;-40
2023/11/29 06:44:35;;;;;;;27.02;11.75;;;;;;;-0.71;100.00;99671.00;7395316;19;20167;-41
2023/11/29 06:47:04;;;;;;;24.13;11.57;;;;;;;-0.74;100.00;99676.72;7371533;19;20621;-41
2023/11/29 06:49:34;;;;;;;25.55;11.48;;;;;;;-0.75;100.00;99687.66;7394081;19;20210;-41
2023/11/29 06:52:04;;;;;;;27.88;10.98;;;;;;;-0.77;100.00;99686.63;7371072;19;20579;-41
2023/11/29 06:54:34;;;;;;;27.80;13.48;;;;;;;-0.78;100.00;99689.09;7392233;19;20206;-41
2023/11/29 06:57:07;;;;;;;26.73;13.23;;;;;;;-0.77;100.00;99701.84;7371342;19;20214;-40
2023/11/29 06:59:37;;;;;;;28.73;13.20;;;;;;;-0.75;100.00;99704.50;7393613;19;20146;-40
2023/11/29 07:02:06;;;;;;;30.80;13.45;;;;;;;-0.74;100.00;99712.19;7372884;19;20198;-40
2023/11/29 07:04:36;;;;;;;28.60;13.57;;;;;;;-0.76;100.00;99718.81;7392468;19;20155;-42
2023/11/29 07:07:08;;;;;;;34.15;14.85;;;;;;;-0.69;100.00;99723.53;7371983;19;20192;-42
2023/11/29 07:09:38;;;;;;;35.83;16.67;;;;;;;-0.64;100.00;99728.03;7393052;19;20682;-40
2023/11/29 07:12:11;;;;;;;31.77;15.00;;;;;;;-0.61;100.00;99733.34;7371695;19;20206;-40
2023/11/29 07:14:41;;;;;;;28.58;13.00;;;;;;;-0.66;100.00;99729.59;7394735;19;20138;-40
2023/11/29 07:17:13;;;;;;;28.50;13.98;;;;;;;-0.65;100.00;99734.78;7371150;19;20200;-41
2023/11/29 07:19:43;;;;;;;28.63;12.55;;;;;;;-0.65;100.00;99736.41;7396156;19;20154;-41
2023/11/29 07:22:14;;;;;;;33.78;14.77;;;;;;;-0.55;100.00;99742.22;7372044;19;20297;-41
2023/11/29 07:24:45;;;;;;;30.48;13.90;;;;;;;-0.59;100.00;99739.38;7391264;19;20146;-40
2023/11/29 07:27:17;;;;;;;36.10;18.05;;;;;;;-0.60;100.00;99735.09;7371918;19;20193;-40
2023/11/29 07:29:47;;;;;;;41.50;17.30;;;;;;;-0.56;100.00;99739.59;7394112;19;20139;-40
2023/11/29 07:32:17;;;;;;;26.95;12.07;;;;;;;-0.63;100.00;99730.69;7370586;19;20208;-42
2023/11/29 07:34:47;;;;;;;29.25;14.43;;;;;;;-0.63;100.00;99725.63;7394022;19;20789;-41
2023/11/29 07:37:18;;;;;;;18.17;9.75;;;;;;;-0.64;100.00;99722.97;7369395;19;20197;-40
2023/11/29 07:39:48;;;;;;;31.45;12.38;;;;;;;-0.64;100.00;99720.44;7393852;19;20141;-42
2023/11/29 07:42:20;;;;;;;34.72;15.88;;;;;;;-0.67;100.00;99723.63;7370693;19;20553;-42
2023/11/29 07:44:50;;;;;;;29.73;13.55;;;;;;;-0.66;100.00;99734.66;7394067;19;20135;-40
2023/11/29 07:47:19;;;;;;;27.13;13.02;;;;;;;-0.64;100.00;99730.56;7368520;19;20217;-40
2023/11/29 07:49:49;;;;;;;28.70;13.23;;;;;;;-0.71;100.00;99739.41;7393930;19;20256;-41
2023/11/29 07:52:19;;;;;;;32.85;14.98;;;;;;;-0.73;100.00;99743.47;7370301;19;20257;-40
2023/11/29 07:54:48;;;;;;;40.80;17.73;;;;;;;-0.70;100.00;99748.78;7393562;19;20536;-39
2023/11/29 07:57:20;;;;;;;33.42;16.23;;;;;;;-0.62;100.00;99760.31;7369644;19;20257;-42
2023/11/29 07:59:50;;;;;;;34.03;15.63;;;;;;;-0.69;100.00;99766.63;7393077;19;20250;-39
2023/11/29 08:02:20;;;;;;;44.47;19.38;;;;;;;-0.61;100.00;99771.34;7370006;19;20193;-42
2023/11/29 08:04:49;;;;;;;48.08;19.40;;;;;;;-0.68;100.00;99781.03;7391135;19;20559;-40
2023/11/29 08:07:19;;;;;;;37.72;16.80;;;;;;;-0.71;100.00;99782.47;7356511;19;20258;-40
2023/11/29 08:09:49;;;;;;;37.35;16.80;;;;;;;-0.69;100.00;99789.41;7363821;19;20151;-39
2023/11/29 08:12:22;;;;;;;48.08;18.95;;;;;;;-0.68;100.00;99793.72;7353692;19;20577;-39
2023/11/29 08:14:51;;;;;;;36.92;16.42;;;;;;;-0.71;100.00;99793.47;7384026;19;20206;-39
2023/11/29 08:17:21;;;;;;;34.85;15.43;;;;;;;-0.70;100.00;99802.88;7362328;19;20190;-39
2023/11/29 08:19:54;;;;;;;52.75;21.17;;;;;;;-0.66;100.00;99808.13;7382966;19;20138;-40
2023/11/29 08:22:24;;;;;;;26.60;13.10;;;;;;;-0.73;100.00;99812.75;7361738;19;20207;-39
2023/11/29 08:24:53;;;;;;;30.35;14.15;;;;;;;-0.77;100.00;99814.97;7383717;19;20538;-40
2023/11/29 08:27:25;;;;;;;30.90;12.85;;;;;;;-0.84;100.00;99817.06;7358059;19;20196;-39
2023/11/29 08:29:55;;;;;;;33.22;15.73;;;;;;;-0.84;100.00;99821.25;7383285;19;20914;-40
2023/11/29 08:32:24;;;;;;;24.20;11.30;;;;;;;-0.89;100.00;99832.69;7362141;19;20182;-41
2023/11/29 08:34:54;;;;;;;35.85;16.77;;;;;;;-0.87;100.00;99836.22;7380782;19;20607;-40
2023/11/29 08:37:24;;;;;;;33.00;15.13;;;;;;;-0.85;100.00;99837.22;7344644;19;20186;-39
2023/11/29 08:39:55;;;;;;;32.45;13.95;;;;;;;-0.82;100.00;99842.53;7385848;19;20159;-41
2023/11/29 08:42:27;;;;;;;34.83;16.25;;;;;;;-0.84;100.00;99836.44;7366406;19;20194;-39
2023/11/29 08:44:58;;;;;;;37.67;16.83;;;;;;;-0.76;100.00;99835.38;7391544;19;20135;-40
2023/11/29 08:47:28;;;;;;;36.28;14.55;;;;;;;-0.77;100.00;99838.63;7367072;19;20620;-42
2023/11/29 08:49:58;;;;;;;33.55;16.50;;;;;;;-0.77;100.00;99843.72;7391986;19;20142;-41
2023/11/29 08:52:27;;;;;;;35.20;15.82;;;;;;;-0.75;100.00;99849.78;7368573;19;20190;-40
2023/11/29 08:54:57;;;;;;;40.17;15.93;;;;;;;-0.71;100.00;99849.22;7392354;19;20214;-41
2023/11/29 08:57:29;;;;;;;34.85;15.90;;;;;;;-0.75;100.00;99865.00;7368418;19;20630;-42
2023/11/29 08:59:59;;;;;;;38.22;17.15;;;;;;;-0.76;100.00;99859.81;7391568;19;20206;-39
2023/11/29 09:02:30;;;;;;;33.03;15.32;;;;;;;-0.71;100.00;99859.34;7368348;19;20209;-40
2023/11/29 09:05:02;;;;;;;34.15;15.48;;;;;;;-0.72;100.00;99851.66;7392500;19;20146;-40
2023/11/29 09:07:32;;;;;;;37.70;16.70;;;;;;;-0.69;100.00;99852.75;7368054;19;20694;-42
2023/11/29 09:10:05;;;;;;;32.33;15.70;;;;;;;-0.60;100.00;99844.06;7391484;19;20459;-40
2023/11/29 09:12:37;;;;;;;39.00;17.05;;;;;;;-0.56;100.00;99856.19;7368147;19;20200;-40
2023/11/29 09:15:08;;;;;;;35.78;16.10;;;;;;;-0.55;100.00;99850.34;7392609;19;20146;-40
2023/11/29 09:17:40;;;;;;;38.05;15.35;;;;;;;-0.60;100.00;99852.56;7367898;19;20678;-41
2023/11/29 09:20:11;;;;;;;37.50;16.15;;;;;;;-0.61;100.00;99844.84;7394598;19;20557;-40
2023/11/29 09:22:40;;;;;;;31.33;15.75;;;;;;;-0.60;100.00;99841.53;7375464;19;20190;-42
2023/11/29 09:25:11;;;;;;;35.83;17.52;;;;;;;-0.61;100.00;99848.22;7398403;19;20151;-41
2023/11/29 09:27:43;;;;;;;35.13;16.20;;;;;;;-0.54;100.00;99841.97;7374403;19;20225;-40
2023/11/29 09:30:14;;;;;;;34.80;16.53;;;;;;;-0.49;100.00;99839.75;7397920;19;20261;-40
2023/11/29 09:32:44;;;;;;;40.40;16.75;;;;;;;-0.51;100.00;99837.09;7375099;19;20777;-41
2023/11/29 09:35:13;;;;;;;41.63;18.27;;;;;;;-0.46;100.00;99834.91;7398693;19;20142;-40
2023/11/29 09:37:43;;;;;;;39.20;18.40;;;;;;;-0.46;100.00;99828.16;7375216;19;20198;-41
2023/11/29 09:40:15;;;;;;;37.30;17.40;;;;;;;-0.40;100.00;99827.75;7397525;19;20203;-41
2023/11/29 09:42:48;;;;;;;34.83;15.60;;;;;;;-0.48;100.00;99823.75;7374968;19;20263;-41
2023/11/29 09:45:25;;;;;;;34.08;15.93;;;;;;;-0.47;100.00;99823.88;7396112;19;20404;-39
2023/11/29 09:47:56;;;;;;;39.20;17.33;;;;;;;-0.47;100.00;99813.75;7373401;19;20197;-40
2023/11/29 09:50:27;;;;;;;37.70;18.13;;;;;;;-0.41;100.00;99810.78;7396135;19;20653;-40
2023/11/29 09:52:57;;;;;;;38.60;15.65;;;;;;;-0.42;100.00;99807.34;7373383;19;20207;-41
2023/11/29 09:55:27;;;;;;;36.25;16.73;;;;;;;-0.42;100.00;99793.78;7396853;19;20227;-42
2023/11/29 09:58:00;;;;;;;38.47;18.17;;;;;;;-0.42;100.00;99783.63;7374292;19;20198;-39
2023/11/29 10:00:30;;;;;;;44.20;17.85;;;;;;;-0.40;100.00;99779.59;7395443;19;20643;-39
2023/11/29 10:03:13;;;;;;;39.38;17.33;;;;;;;-0.43;100.00;99770.09;7375144;19;20654;-43
2023/11/29 10:05:46;;;;;;;34.67;15.77;;;;;;;-0.41;100.00;99768.53;7397473;19;20505;-42
2023/11/29 10:08:19;;;;;;;40.57;16.80;;;;;;;-0.36;100.00;99766.31;7375192;19;20198;-39
2023/11/29 10:10:50;;;;;;;40.47;17.17;;;;;;;-0.27;100.00;99761.00;7395870;19;20463;-40
2023/11/29 10:13:22;;;;;;;34.58;16.23;;;;;;;-0.27;100.00;99755.94;7372388;19;20466;-41
2023/11/29 10:15:53;;;;;;;38.75;16.67;;;;;;;-0.19;100.00;99743.81;7397573;19;20135;-41
2023/11/29 10:18:22;;;;;;;31.70;16.57;;;;;;;-0.19;100.00;99737.09;7374513;19;20194;-41
2023/11/29 10:20:53;;;;;;;34.50;16.20;;;;;;;-0.26;100.00;99722.19;7396493;19;20803;-40
2023/11/29 10:23:37;;;;;;;33.95;16.10;;;;;;;-0.15;100.00;99718.75;7374989;19;20198;-40
2023/11/29 10:26:08;;;;;;;39.35;16.92;;;;;;;-0.17;100.00;99705.09;7397395;19;20869;-40
2023/11/29 10:28:41;;;;;;;39.20;16.63;;;;;;;-0.17;100.00;99694.97;7374090;19;20200;-41
2023/11/29 10:31:11;;;;;;;37.30;16.83;;;;;;;-0.16;100.00;99676.41;7394875;19;20444;-41
2023/11/29 10:33:42;;;;;;;32.00;16.63;;;;;;;-0.17;100.00;99674.66;7374160;19;20486;-40
2023/11/29 10:36:13;;;;;;;33.93;15.87;;;;;;;-0.22;100.00;99667.50;7399045;19;20409;-40
2023/11/29 10:38:46;;;;;;;32.90;16.80;;;;;;;-0.07;100.00;99653.34;7375292;19;20431;-42
2023/11/29 10:41:16;;;;;;;31.20;15.00;;;;;;;-0.11;100.00;99645.44;7373996;19;20454;-42
2023/11/29 10:43:50;;;;;;;35.67;16.20;;;;;;;-0.15;100.00;99630.00;7396719;19;20411;-40
2023/11/29 10:46:24;;;;;;;34.07;16.30;;;;;;;-0.23;100.00;99625.19;7370892;19;20410;-39
2023/11/29 10:48:59;;;;;;;34.07;16.10;;;;;;;-0.14;100.00;99625.81;7394990;19;20451;-40
2023/11/29 10:51:29;;;;;;;34.97;17.13;;;;;;;-0.16;100.00;99607.97;7372400;19;20866;-41
2023/11/29 10:53:59;;;;;;;31.70;15.77;;;;;;;-0.06;100.00;99603.50;7395156;19;20823;-42
2023/11/29 10:56:31;;;;;;;36.50;17.20;;;;;;;0.06;100.00;99600.88;7372894;19;20392;-40
2023/11/29 10:59:19;;;;;;;37.30;17.10;;;;;;;0.24;100.00;99601.19;7394915;19;20768;-41
2023/11/29 11:01:49;;;;;;;31.50;14.60;;;;;;;0.11;100.00;99581.78;7372497;19;20381;-42
2023/11/29 11:04:19;;;;;;;34.00;16.23;;;;;;;0.08;100.00;99576.50;7393749;19;20406;-41
2023/11/29 11:06:49;;;;;;;30.93;15.73;;;;;;;-0.08;100.00;99561.94;7372709;19;20221;-40
2023/11/29 11:09:39;;;;;;;33.70;15.23;;;;;;;0.03;100.00;99550.84;7392886;19;20467;-42
2023/11/29 11:12:09;;;;;;;29.37;14.20;;;;;;;-0.11;100.00;99541.47;7372465;19;20410;-40
2023/11/29 11:14:48;;;;;;;35.50;16.10;;;;;;;-0.12;100.00;99530.44;7394729;19;20486;-41
2023/11/29 11:17:22;;;;;;;30.42;15.38;;;;;;;-0.10;100.00;99515.31;7370427;19;20503;-42
2023/11/29 11:19:53;;;;;;;30.90;16.20;;;;;;;-0.13;100.00;99513.47;7394324;19;20220;-40
2023/11/29 11:22:29;;;;;;;33.17;15.40;;;;;;;-0.15;100.00;99510.81;7371717;19;20423;-41
2023/11/29 11:25:07;;;;;;;33.90;15.57;;;;;;;-0.16;100.00;99506.53;7396764;19;20434;-41
2023/11/29 11:27:38;;;;;;;30.83;15.00;;;;;;;-0.10;100.00;99498.44;7371042;19;20423;-41